Time;durP1;ratioP1;P1;durP2;ratioP2;P2;SDS_P1;SDS_P2;PMS_P1;PMS_P2;Temp;Humidity;BMP_temperature;BMP_pressure;BME280_temperature;BME280_humidity;BME280_pressure;Samples;Min_cycle;Max_cycle;Signal;HPM_P1;HPM_P2
2022/07/10 00:00:32;;;;;;;4.80;2.50;;;;;;;14.61;65.98;99991.45;107276;1279;112385;-76
2022/07/10 00:03:09;;;;;;;5.00;2.30;;;;;;;14.61;66.12;99993.03;106819;1279;108908;-76
2022/07/10 00:05:42;;;;;;;3.80;2.30;;;;;;;14.60;66.25;99990.30;106444;1279;108386;-77
2022/07/10 00:08:14;;;;;;;2.70;2.10;;;;;;;14.57;66.40;99990.45;106955;1279;138744;-76
2022/07/10 00:10:47;;;;;;;3.40;2.30;;;;;;;14.55;66.53;99993.53;105992;1279;97827;-76
2022/07/10 00:13:19;;;;;;;3.60;2.40;;;;;;;14.52;66.77;99988.92;105920;1279;138555;-77
2022/07/10 00:15:52;;;;;;;4.90;2.70;;;;;;;14.50;66.87;99987.94;106327;1279;108304;-76
2022/07/10 00:18:24;;;;;;;6.30;2.70;;;;;;;14.49;67.03;99988.89;107201;1279;108878;-77
2022/07/10 00:20:57;;;;;;;3.70;2.30;;;;;;;14.48;67.20;99989.30;107157;1277;139950;-77
2022/07/10 00:23:29;;;;;;;5.90;2.40;;;;;;;14.45;67.36;99986.11;107266;1279;96261;-77
2022/07/10 00:26:01;;;;;;;4.80;2.40;;;;;;;14.42;67.46;99985.05;107200;1279;138467;-77
2022/07/10 00:28:33;;;;;;;3.60;2.50;;;;;;;14.37;67.65;99983.58;107322;1278;109287;-76
2022/07/10 00:31:06;;;;;;;4.50;2.70;;;;;;;14.34;67.97;99984.59;106229;1279;139303;-78
2022/07/10 00:33:39;;;;;;;4.80;2.90;;;;;;;14.30;67.99;99977.27;105761;1279;97968;-77
2022/07/10 00:36:12;;;;;;;6.00;2.80;;;;;;;14.27;68.20;99974.48;105689;1279;97740;-77
2022/07/10 00:38:44;;;;;;;3.80;2.40;;;;;;;14.22;68.46;99971.73;105704;1281;138801;-77
2022/07/10 00:41:16;;;;;;;5.00;2.90;;;;;;;14.17;68.60;99970.40;105896;1279;108065;-77
2022/07/10 00:43:56;;;;;;;4.20;2.90;;;;;;;14.13;68.73;99973.08;106723;1279;138579;-77
2022/07/10 00:46:30;;;;;;;4.50;3.10;;;;;;;14.09;69.04;99969.80;107281;1279;95908;-78
2022/07/10 00:49:02;;;;;;;3.40;2.40;;;;;;;14.04;69.26;99966.55;107172;1279;138505;-77
2022/07/10 00:51:36;;;;;;;4.80;2.80;;;;;;;14.00;69.52;99970.61;106063;1279;112659;-77
2022/07/10 00:54:08;;;;;;;5.40;2.90;;;;;;;13.96;69.54;99967.14;106823;1279;108914;-76
2022/07/10 00:56:42;;;;;;;5.20;2.90;;;;;;;13.92;69.81;99968.39;106918;1279;138620;-77
2022/07/10 00:59:15;;;;;;;5.10;3.10;;;;;;;13.88;70.07;99968.08;107277;1279;96005;-77
2022/07/10 01:01:48;;;;;;;5.50;3.20;;;;;;;13.85;70.10;99964.71;107157;1279;139109;-78
2022/07/10 01:04:20;;;;;;;4.40;3.10;;;;;;;13.83;70.36;99963.77;106386;1279;111386;-77
2022/07/10 01:06:53;;;;;;;6.80;2.80;;;;;;;13.82;70.47;99963.45;106019;1279;139140;-76
2022/07/10 01:09:25;;;;;;;4.90;3.10;;;;;;;13.80;70.73;99961.10;106838;1279;109100;-79
2022/07/10 01:12:00;;;;;;;4.40;3.30;;;;;;;13.78;70.90;99954.41;105712;1279;97838;-77
2022/07/10 01:14:35;;;;;;;3.70;3.10;;;;;;;13.76;70.92;99951.35;105770;1279;138991;-77
2022/07/10 01:17:09;;;;;;;5.00;3.30;;;;;;;13.74;71.12;99949.20;105734;1279;112504;-77
2022/07/10 01:19:41;;;;;;;4.60;3.10;;;;;;;13.72;71.29;99951.19;105552;1279;139558;-77
2022/07/10 01:22:14;;;;;;;4.60;3.10;;;;;;;13.72;71.32;99946.31;105755;1279;109590;-78
2022/07/10 01:24:47;;;;;;;4.00;3.20;;;;;;;13.72;71.58;99944.23;105607;1279;139829;-77
2022/07/10 01:27:19;;;;;;;4.20;3.30;;;;;;;13.70;71.66;99941.70;105718;1279;97734;-78
2022/07/10 01:29:54;;;;;;;5.90;3.30;;;;;;;13.70;71.92;99935.41;105608;1279;112442;-78
2022/07/10 01:32:26;;;;;;;6.40;3.40;;;;;;;13.70;71.81;99929.29;105582;1279;138702;-78
2022/07/10 01:34:58;;;;;;;4.90;3.70;;;;;;;13.70;71.68;99931.40;105735;1279;107743;-78
2022/07/10 01:37:31;;;;;;;3.70;3.10;;;;;;;13.69;71.90;99933.36;105566;1279;139194;-78
2022/07/10 01:40:04;;;;;;;4.80;3.40;;;;;;;13.68;71.86;99927.30;105753;1279;97850;-78
2022/07/10 01:42:38;;;;;;;5.30;3.70;;;;;;;13.68;72.02;99923.11;105737;1279;112441;-78
2022/07/10 01:45:11;;;;;;;4.10;2.90;;;;;;;13.69;72.15;99925.70;105695;1279;108812;-78
2022/07/10 01:47:44;;;;;;;4.70;3.30;;;;;;;13.70;72.18;99921.63;106385;1278;110683;-79
2022/07/10 01:50:16;;;;;;;4.80;3.30;;;;;;;13.70;72.24;99922.98;105709;1279;138622;-78
2022/07/10 01:52:49;;;;;;;6.90;3.70;;;;;;;13.72;72.15;99917.51;105969;1279;97850;-78
2022/07/10 01:55:21;;;;;;;6.20;3.40;;;;;;;13.72;72.16;99916.95;106137;1279;138577;-77
2022/07/10 01:57:54;;;;;;;4.90;3.40;;;;;;;13.73;72.08;99913.74;106776;1278;108928;-76
2022/07/10 02:06:15;;;;;;;6.70;3.10;;;;;;;13.78;72.22;99907.73;105869;1281;97735;-77
2022/07/10 02:08:47;;;;;;;4.60;3.50;;;;;;;13.79;72.01;99909.08;105728;1281;139008;-77
2022/07/10 02:11:20;;;;;;;5.50;3.70;;;;;;;13.80;72.01;99907.63;105845;1281;108883;-76
2022/07/10 02:13:52;;;;;;;4.50;3.10;;;;;;;13.81;72.08;99910.88;105713;1281;137615;-78
2022/07/10 02:16:25;;;;;;;7.30;3.70;;;;;;;13.82;72.08;99907.73;107124;1280;96168;-76
2022/07/10 02:18:57;;;;;;;6.00;3.60;;;;;;;13.83;72.10;99905.23;106929;1281;138868;-76
2022/07/10 02:21:29;;;;;;;4.40;3.20;;;;;;;13.83;72.14;99907.83;105854;1281;113210;-78
2022/07/10 02:24:01;;;;;;;5.10;3.80;;;;;;;13.81;71.97;99909.31;105710;1280;106649;-78
2022/07/10 02:26:34;;;;;;;5.70;3.50;;;;;;;13.81;72.14;99906.02;105716;1281;138770;-77
2022/07/10 02:29:06;;;;;;;4.80;3.50;;;;;;;13.80;72.20;99904.65;105788;1281;97893;-77
2022/07/10 02:31:40;;;;;;;8.80;3.40;;;;;;;13.79;72.21;99903.46;106359;1281;140069;-77
2022/07/10 02:34:14;;;;;;;4.90;3.40;;;;;;;13.78;72.24;99900.92;107120;1281;112520;-77
2022/07/10 02:36:46;;;;;;;5.60;3.30;;;;;;;13.77;72.26;99912.71;107019;1280;139391;-76
2022/07/10 02:39:18;;;;;;;8.30;3.50;;;;;;;13.76;72.37;99905.76;106995;1279;108710;-77
2022/07/10 02:41:51;;;;;;;4.50;3.30;;;;;;;13.77;72.61;99901.48;106138;1281;97891;-77
2022/07/10 02:44:24;;;;;;;5.10;3.90;;;;;;;13.78;72.43;99904.58;105766;1281;138428;-77
2022/07/10 02:46:56;;;;;;;6.10;3.70;;;;;;;13.79;72.49;99901.06;105783;1281;112774;-77
2022/07/10 02:49:29;;;;;;;6.80;3.50;;;;;;;13.79;72.42;99899.66;105704;1280;138867;-76
2022/07/10 02:52:01;;;;;;;6.00;3.90;;;;;;;13.77;72.57;99895.58;107122;1280;108690;-77
2022/07/10 02:54:34;;;;;;;6.60;3.70;;;;;;;13.77;72.64;99896.42;107121;1279;96036;-76
2022/07/10 02:57:08;;;;;;;6.10;3.60;;;;;;;13.76;72.64;99892.62;106794;1281;138757;-77
2022/07/10 02:59:40;;;;;;;5.90;3.70;;;;;;;13.78;72.56;99890.77;106247;1281;112751;-77
2022/07/10 03:02:13;;;;;;;4.30;3.50;;;;;;;13.79;72.61;99891.61;105748;1281;138783;-77
2022/07/10 03:04:45;;;;;;;4.10;3.60;;;;;;;13.81;72.53;99888.17;105729;1280;108919;-78
2022/07/10 03:07:18;;;;;;;6.20;3.60;;;;;;;13.83;72.47;99889.47;105644;1281;139667;-78
2022/07/10 03:09:51;;;;;;;7.80;3.70;;;;;;;13.86;72.49;99889.33;105798;1281;97837;-77
2022/07/10 03:12:24;;;;;;;5.40;3.70;;;;;;;13.88;72.33;99887.48;105810;1281;111496;-78
2022/07/10 03:14:56;;;;;;;6.80;3.80;;;;;;;13.88;72.55;99888.50;105671;1281;140824;-78
2022/07/10 03:17:28;;;;;;;5.80;3.80;;;;;;;13.87;72.36;99892.77;106162;1281;109247;-78
2022/07/10 03:20:01;;;;;;;6.30;4.00;;;;;;;13.86;72.36;99887.05;105680;1281;138709;-78
2022/07/10 03:22:33;;;;;;;6.30;4.20;;;;;;;13.85;72.36;99888.00;105826;1281;98578;-78
2022/07/10 03:25:06;;;;;;;6.40;3.90;;;;;;;13.85;72.42;99896.74;105718;1281;138634;-78
2022/07/10 03:27:39;;;;;;;6.00;4.00;;;;;;;13.83;72.48;99891.41;107081;1280;109697;-77
2022/07/10 03:30:12;;;;;;;4.20;3.70;;;;;;;13.82;72.53;99891.98;107065;1280;109089;-78
2022/07/10 03:32:44;;;;;;;6.20;4.40;;;;;;;13.82;72.66;99892.70;105855;1281;138845;-77
2022/07/10 03:35:17;;;;;;;7.50;4.40;;;;;;;13.81;72.63;99888.70;105806;1281;97857;-78
2022/07/10 03:37:49;;;;;;;6.90;4.40;;;;;;;13.79;72.69;99888.99;105698;1281;138601;-78
2022/07/10 03:40:22;;;;;;;6.80;5.30;;;;;;;13.80;72.89;99888.43;105732;1281;108478;-76
2022/07/10 03:42:55;;;;;;;6.80;4.80;;;;;;;13.81;72.83;99884.68;105773;1281;139787;-76
2022/07/10 03:45:27;;;;;;;7.70;4.90;;;;;;;13.83;72.91;99884.61;106097;1281;97844;-77
2022/07/10 03:48:00;;;;;;;11.30;4.70;;;;;;;13.85;72.85;99882.03;105750;1281;99219;-77
2022/07/10 03:50:32;;;;;;;6.50;4.50;;;;;;;13.87;72.82;99876.88;105700;1281;139238;-78
2022/07/10 03:53:05;;;;;;;6.10;4.20;;;;;;;13.87;72.75;99877.90;105752;1281;108515;-77
2022/07/10 03:55:38;;;;;;;6.90;4.40;;;;;;;13.91;72.78;99879.99;106126;1280;139698;-78
2022/07/10 03:58:10;;;;;;;6.80;5.20;;;;;;;13.94;72.92;99880.36;105876;1281;99342;-78
2022/07/10 04:00:43;;;;;;;6.30;4.90;;;;;;;13.97;72.81;99880.73;105785;1281;97870;-78
2022/07/10 04:03:16;;;;;;;10.00;6.70;;;;;;;14.02;72.75;99884.30;106951;1280;112727;-78
2022/07/10 04:05:48;;;;;;;11.50;7.30;;;;;;;14.12;72.82;99884.85;105763;1281;108461;-78
2022/07/10 04:08:20;;;;;;;7.70;5.40;;;;;;;14.25;72.66;99884.71;105621;1281;139077;-78
2022/07/10 04:10:53;;;;;;;7.50;4.60;;;;;;;14.37;72.48;99885.23;105755;1281;97827;-78
2022/07/10 04:13:25;;;;;;;6.50;4.50;;;;;;;14.47;71.90;99883.69;106952;1280;138601;-78
2022/07/10 04:15:57;;;;;;;8.10;5.10;;;;;;;14.57;71.83;99883.18;106527;1281;112293;-78
2022/07/10 04:18:30;;;;;;;10.40;4.10;;;;;;;14.67;71.37;99884.52;107071;1280;108449;-77
2022/07/10 04:21:02;;;;;;;11.80;5.60;;;;;;;14.75;71.17;99889.36;106956;1280;139757;-77
2022/07/10 04:23:34;;;;;;;6.20;3.70;;;;;;;14.86;70.74;99892.92;105735;1281;97960;-77
2022/07/10 04:26:07;;;;;;;8.90;4.40;;;;;;;14.94;70.66;99893.39;105692;1281;138673;-77
2022/07/10 04:28:39;;;;;;;6.10;3.40;;;;;;;15.02;70.24;99895.86;106918;1281;112502;-78
2022/07/10 04:31:13;;;;;;;7.70;3.60;;;;;;;15.09;69.84;99895.65;106978;1280;139437;-77
2022/07/10 04:33:45;;;;;;;4.40;3.10;;;;;;;15.19;69.43;99889.33;107080;1281;108991;-78
2022/07/10 04:36:18;;;;;;;7.30;3.40;;;;;;;15.23;69.13;99887.66;107066;1281;96412;-77
2022/07/10 04:38:50;;;;;;;5.10;3.50;;;;;;;15.31;69.14;99885.66;105864;1280;138990;-78
2022/07/10 04:41:23;;;;;;;7.10;3.50;;;;;;;15.37;69.04;99886.38;106893;1281;110815;-78
2022/07/10 04:43:55;;;;;;;6.50;3.10;;;;;;;15.44;69.03;99885.79;105605;1281;138618;-77
2022/07/10 04:46:28;;;;;;;6.70;3.60;;;;;;;15.54;68.72;99879.23;105567;1281;109031;-77
2022/07/10 04:49:00;;;;;;;5.10;2.80;;;;;;;15.64;68.33;99878.86;105515;1281;141189;-77
2022/07/10 04:51:32;;;;;;;6.40;2.80;;;;;;;15.73;67.83;99875.20;105640;1281;97855;-77
2022/07/10 04:54:05;;;;;;;3.10;2.30;;;;;;;15.84;67.29;99867.31;105639;1281;111415;-78
2022/07/10 04:56:37;;;;;;;7.50;2.50;;;;;;;16.02;67.15;99867.98;105544;1281;138611;-77
2022/07/10 04:59:10;;;;;;;6.60;2.90;;;;;;;16.23;66.78;99866.70;105620;1281;108895;-77
2022/07/10 05:01:43;;;;;;;5.60;2.60;;;;;;;16.39;66.03;99862.44;105997;1281;138602;-77
2022/07/10 05:04:15;;;;;;;4.70;2.30;;;;;;;16.49;65.52;99862.26;105806;1281;97961;-77
2022/07/10 05:06:47;;;;;;;3.80;1.80;;;;;;;16.56;65.01;99864.82;105642;1280;139568;-79
2022/07/10 05:09:20;;;;;;;4.20;1.90;;;;;;;16.65;64.71;99864.07;105764;1281;109036;-79
2022/07/10 05:11:52;;;;;;;7.80;2.10;;;;;;;16.78;64.42;99862.77;105746;1280;108781;-78
2022/07/10 05:14:25;;;;;;;4.30;2.30;;;;;;;16.88;63.97;99864.40;105677;1281;139057;-78
2022/07/10 05:16:58;;;;;;;5.50;2.20;;;;;;;17.11;63.67;99858.88;105808;1281;97929;-78
2022/07/10 05:19:30;;;;;;;5.50;2.00;;;;;;;17.42;63.08;99861.53;106354;1280;138857;-78
2022/07/10 05:22:03;;;;;;;4.00;1.60;;;;;;;17.64;62.37;99858.02;105829;1281;108393;-78
2022/07/10 05:24:35;;;;;;;4.30;1.90;;;;;;;17.71;61.83;99858.73;107100;1281;109017;-78
2022/07/10 05:27:08;;;;;;;5.10;2.00;;;;;;;17.69;61.30;99860.13;105856;1281;138221;-77
2022/07/10 05:29:41;;;;;;;6.30;2.10;;;;;;;17.62;61.01;99859.38;106005;1281;97725;-78
2022/07/10 05:32:13;;;;;;;6.90;1.90;;;;;;;17.53;60.94;99855.16;106166;1281;137726;-78
2022/07/10 05:34:46;;;;;;;5.00;2.00;;;;;;;17.54;61.02;99855.81;106683;1281;108881;-79
2022/07/10 05:37:18;;;;;;;5.50;2.60;;;;;;;17.60;60.92;99854.52;106820;1281;139481;-78
2022/07/10 05:39:51;;;;;;;6.10;2.10;;;;;;;17.73;60.69;99857.94;106741;1281;97753;-78
2022/07/10 05:42:23;;;;;;;3.30;1.80;;;;;;;17.82;60.45;99851.86;106023;1281;97872;-79
2022/07/10 05:44:55;;;;;;;4.40;1.80;;;;;;;17.89;60.31;99849.83;105595;1281;137697;-79
2022/07/10 05:47:28;;;;;;;3.30;1.80;;;;;;;17.94;59.98;99848.38;106409;1281;107792;-77
2022/07/10 05:50:00;;;;;;;5.50;1.90;;;;;;;18.03;59.64;99849.30;106555;1281;137975;-78
2022/07/10 05:52:33;;;;;;;5.40;2.00;;;;;;;18.09;59.08;99845.55;106576;1280;97917;-77
2022/07/10 05:55:07;;;;;;;7.60;2.00;;;;;;;18.19;58.93;99846.46;105735;1281;138375;-78
2022/07/10 05:57:40;;;;;;;4.30;2.00;;;;;;;18.29;58.61;99843.45;107026;1281;112607;-76
2022/07/10 06:00:13;;;;;;;6.10;1.90;;;;;;;18.35;58.19;99843.10;106199;1281;109179;-78
2022/07/10 06:02:45;;;;;;;3.40;2.00;;;;;;;18.38;58.17;99843.58;107002;1281;139752;-78
2022/07/10 06:05:18;;;;;;;8.20;2.10;;;;;;;18.43;58.00;99844.27;105725;1281;97847;-79
2022/07/10 06:07:51;;;;;;;4.70;1.90;;;;;;;18.44;57.56;99841.69;105708;1281;137825;-77
2022/07/10 06:10:23;;;;;;;5.10;2.30;;;;;;;18.48;57.75;99847.95;106553;1281;112439;-77
2022/07/10 06:12:55;;;;;;;5.50;2.40;;;;;;;18.57;57.68;99850.66;106683;1280;137930;-76
2022/07/10 06:15:27;;;;;;;10.60;2.30;;;;;;;18.66;57.69;99851.39;106886;1281;108930;-77
2022/07/10 06:18:00;;;;;;;4.00;2.30;;;;;;;18.84;57.62;99842.56;106509;1281;97818;-76
2022/07/10 06:20:32;;;;;;;5.80;2.30;;;;;;;19.04;57.41;99842.48;106787;1280;138873;-77
2022/07/10 06:23:04;;;;;;;5.30;2.50;;;;;;;19.31;56.84;99842.21;107083;1281;112493;-77
2022/07/10 06:25:37;;;;;;;7.50;3.30;;;;;;;19.60;56.28;99840.93;105815;1281;137984;-77
2022/07/10 06:28:09;;;;;;;3.60;2.10;;;;;;;19.82;55.73;99833.94;106733;1280;107929;-77
2022/07/10 06:30:41;;;;;;;5.60;2.50;;;;;;;19.77;55.09;99836.33;105952;1281;97753;-77
2022/07/10 06:33:14;;;;;;;5.00;2.40;;;;;;;19.58;55.13;99837.09;106227;1281;97875;-77
2022/07/10 06:35:47;;;;;;;8.30;3.20;;;;;;;19.34;55.09;99834.63;107137;1281;112295;-77
2022/07/10 06:38:19;;;;;;;7.70;2.90;;;;;;;19.14;55.38;99835.79;107027;1280;138912;-76
2022/07/10 06:40:53;;;;;;;6.20;3.10;;;;;;;18.97;55.62;99835.10;106158;1281;108126;-76
2022/07/10 06:43:25;;;;;;;6.90;3.50;;;;;;;18.86;56.08;99834.15;105676;1281;138658;-77
2022/07/10 06:45:58;;;;;;;6.50;3.20;;;;;;;18.89;56.32;99836.35;106464;1281;97891;-77
2022/07/10 06:48:30;;;;;;;5.50;3.00;;;;;;;18.93;56.37;99837.71;105855;1281;112277;-76
2022/07/10 06:51:02;;;;;;;6.40;2.90;;;;;;;18.92;56.05;99832.42;106353;1281;140073;-77
2022/07/10 06:53:35;;;;;;;7.20;3.00;;;;;;;18.82;56.16;99837.59;105831;1281;108931;-77
2022/07/10 06:56:09;;;;;;;5.60;2.70;;;;;;;18.77;56.22;99837.62;107019;1281;137944;-79
2022/07/10 06:58:41;;;;;;;7.70;2.70;;;;;;;18.78;56.45;99836.12;106601;1281;97731;-78
2022/07/10 07:01:15;;;;;;;4.80;2.50;;;;;;;18.90;56.58;99835.46;106774;1281;137898;-78
2022/07/10 07:03:48;;;;;;;7.30;2.10;;;;;;;19.05;56.28;99839.27;106669;1280;108934;-77
2022/07/10 07:06:20;;;;;;;5.20;2.20;;;;;;;19.17;55.32;99838.86;105865;1281;138872;-79
2022/07/10 07:08:53;;;;;;;8.00;2.30;;;;;;;19.30;55.01;99836.65;105724;1281;96963;-77
2022/07/10 07:11:25;;;;;;;3.40;2.00;;;;;;;19.52;54.45;99837.73;105749;1281;98492;-78
2022/07/10 07:13:57;;;;;;;7.30;2.30;;;;;;;19.81;54.02;99831.79;105720;1281;111504;-78
2022/07/10 07:16:41;;;;;;;3.50;2.20;;;;;;;20.05;53.29;99831.65;105791;1281;107345;-78
2022/07/10 07:19:17;;;;;;;3.50;2.00;;;;;;;20.28;52.69;99832.14;105597;1281;138054;-77
2022/07/10 07:24:39;;;;;;;4.70;2.00;;;;;;;21.16;51.23;99832.80;105733;1281;139361;-77
2022/07/10 07:27:12;;;;;;;7.90;4.80;;;;;;;21.71;50.83;99833.50;106679;1281;112695;-77
2022/07/10 07:29:44;;;;;;;4.10;2.00;;;;;;;22.63;49.97;99827.48;105715;1281;139085;-77
2022/07/10 07:32:17;;;;;;;3.50;2.10;;;;;;;23.15;49.14;99823.16;105839;1281;108877;-77
2022/07/10 07:34:49;;;;;;;3.60;1.80;;;;;;;23.56;48.54;99820.48;105753;1281;97839;-76
2022/07/10 07:37:22;;;;;;;4.30;1.60;;;;;;;23.70;47.49;99809.91;105796;1281;137677;-77
2022/07/10 07:39:55;;;;;;;4.70;2.00;;;;;;;23.84;46.48;99809.98;105922;1281;112548;-77
2022/07/10 07:42:27;;;;;;;3.80;1.80;;;;;;;24.62;46.04;99806.98;105781;1281;138012;-77
2022/07/10 07:45:00;;;;;;;8.20;1.80;;;;;;;25.30;44.61;99802.23;105918;1281;108953;-77
2022/07/10 07:47:33;;;;;;;5.40;1.90;;;;;;;25.33;43.75;99801.19;105879;1281;139132;-77
2022/07/10 07:50:06;;;;;;;6.50;1.60;;;;;;;25.17;43.60;99799.91;105880;1281;97809;-76
2022/07/10 07:52:38;;;;;;;5.20;1.70;;;;;;;24.80;43.45;99799.13;106197;1280;111172;-78
2022/07/10 07:55:14;;;;;;;4.80;1.90;;;;;;;24.58;44.00;99801.80;105787;1281;137912;-77
2022/07/10 07:57:47;;;;;;;5.90;1.50;;;;;;;24.41;43.96;99802.66;106041;1281;107931;-76
2022/07/10 08:00:19;;;;;;;4.20;1.50;;;;;;;24.18;43.23;99799.85;105785;1281;138038;-77
2022/07/10 08:02:52;;;;;;;5.70;1.80;;;;;;;23.89;43.14;99801.70;106257;1281;97846;-76
2022/07/10 08:05:25;;;;;;;4.30;1.90;;;;;;;23.55;42.78;99802.40;106019;1281;112449;-76
2022/07/10 08:08:04;;;;;;;5.60;1.70;;;;;;;23.50;43.53;99805.69;106825;1281;107862;-77
2022/07/10 08:10:38;;;;;;;3.80;1.40;;;;;;;23.96;42.57;99802.95;105945;1281;108452;-77
2022/07/10 08:13:16;;;;;;;6.80;1.70;;;;;;;23.88;41.87;99800.00;105753;1281;137958;-79
2022/07/10 08:15:49;;;;;;;4.20;1.20;;;;;;;23.59;41.83;99807.62;106181;1281;97736;-78
2022/07/10 08:18:29;;;;;;;4.00;1.40;;;;;;;23.37;42.01;99815.29;105808;1281;137749;-77
2022/07/10 08:21:01;;;;;;;3.30;1.40;;;;;;;23.21;42.32;99816.21;105938;1281;109280;-78
2022/07/10 08:23:33;;;;;;;3.90;1.50;;;;;;;22.90;42.59;99815.46;106035;1281;138093;-76
2022/07/10 08:26:06;;;;;;;5.50;1.40;;;;;;;22.59;43.23;99819.34;105937;1281;97988;-77
2022/07/10 08:28:39;;;;;;;5.60;1.30;;;;;;;23.13;43.46;99820.89;106120;1281;97829;-77
2022/07/10 08:31:12;;;;;;;3.60;1.20;;;;;;;23.42;43.09;99817.27;105794;1281;137770;-77
2022/07/10 08:33:47;;;;;;;4.10;1.30;;;;;;;23.37;43.05;99817.36;105913;1281;108995;-78
2022/07/10 08:36:21;;;;;;;5.90;1.40;;;;;;;23.27;42.78;99815.67;107047;1281;138587;-78
2022/07/10 08:39:12;;;;;;;4.60;1.30;;;;;;;22.93;42.41;99812.08;106086;1281;97655;-78
2022/07/10 08:41:46;;;;;;;5.00;1.30;;;;;;;22.67;42.76;99817.17;105788;1281;137954;-77
2022/07/10 08:44:19;;;;;;;4.80;1.40;;;;;;;22.81;42.89;99818.08;105942;1280;111323;-77
2022/07/10 08:46:51;;;;;;;6.30;1.40;;;;;;;23.19;43.10;99819.27;105925;1281;108449;-77
2022/07/10 08:49:27;;;;;;;3.30;1.30;;;;;;;23.68;42.22;99814.34;106009;1281;138143;-78
2022/07/10 08:52:04;;;;;;;4.00;1.50;;;;;;;23.62;41.88;99816.36;105769;1281;97839;-78
2022/07/10 08:54:38;;;;;;;6.60;1.90;;;;;;;23.42;41.61;99813.71;105890;1281;137801;-79
2022/07/10 08:57:12;;;;;;;4.30;1.60;;;;;;;23.73;42.10;99810.16;106338;1280;111926;-77
2022/07/10 08:59:44;;;;;;;3.10;1.40;;;;;;;24.80;41.79;99802.55;106186;1281;137963;-78
2022/07/10 09:02:16;;;;;;;3.30;1.30;;;;;;;25.85;40.30;99795.80;106257;1281;108948;-79
2022/07/10 09:04:49;;;;;;;5.80;1.20;;;;;;;26.78;39.27;99791.59;105901;1280;97961;-78
2022/07/10 09:07:22;;;;;;;4.10;1.30;;;;;;;27.48;37.70;99787.87;105824;1281;137833;-78
2022/07/10 09:09:58;;;;;;;4.50;1.30;;;;;;;27.59;36.98;99778.52;105976;1281;112329;-77
2022/07/10 09:12:30;;;;;;;5.40;1.20;;;;;;;27.37;36.20;99777.41;106064;1281;137875;-79
2022/07/10 09:15:18;;;;;;;6.30;1.70;;;;;;;26.83;36.41;99780.05;105753;1281;109712;-79
2022/07/10 09:17:58;;;;;;;8.40;1.60;;;;;;;26.25;36.32;99783.88;105674;1281;138220;-79
2022/07/10 09:20:33;;;;;;;3.50;1.50;;;;;;;25.58;35.92;99786.55;105783;1280;97811;-79
2022/07/10 09:23:18;;;;;;;2.80;1.20;;;;;;;25.00;36.39;99786.53;105827;1281;112540;-78
2022/07/10 09:25:52;;;;;;;5.50;1.00;;;;;;;25.40;37.18;99786.91;105584;1281;138043;-78
2022/07/10 09:28:25;;;;;;;5.00;1.10;;;;;;;26.18;36.80;99779.30;105955;1280;109070;-78
2022/07/10 09:30:59;;;;;;;2.20;1.00;;;;;;;26.30;35.89;99775.81;105860;1281;138026;-77
2022/07/10 09:33:34;;;;;;;5.10;1.20;;;;;;;26.03;35.32;99778.00;106171;1281;97889;-78
2022/07/10 09:36:10;;;;;;;5.40;1.30;;;;;;;25.61;35.30;99779.45;106477;1281;138310;-78
2022/07/10 09:39:00;;;;;;;3.90;1.70;;;;;;;25.11;35.87;99778.98;107127;1280;108951;-76
2022/07/10 09:41:32;;;;;;;4.60;1.40;;;;;;;24.44;36.58;99790.00;107043;1281;138245;-76
2022/07/10 09:44:08;;;;;;;3.60;1.40;;;;;;;23.92;37.68;99797.20;107153;1280;95981;-78
2022/07/10 09:46:41;;;;;;;3.80;1.40;;;;;;;23.50;38.63;99795.08;106459;1281;97841;-78
2022/07/10 09:49:16;;;;;;;5.90;1.40;;;;;;;23.18;39.10;99792.95;106231;1280;395976;-80
2022/07/10 09:51:49;;;;;;;5.30;1.20;;;;;;;22.90;39.61;99793.15;106144;1281;108993;-78
2022/07/10 09:54:22;;;;;;;3.10;1.10;;;;;;;22.67;39.84;99792.06;106093;1281;137820;-79
2022/07/10 09:56:56;;;;;;;2.70;1.10;;;;;;;22.59;40.22;99790.82;105967;1281;97863;-78
2022/07/10 09:59:33;;;;;;;6.00;1.20;;;;;;;22.80;40.13;99788.16;105900;1281;137881;-78
2022/07/10 10:02:06;;;;;;;3.50;1.30;;;;;;;23.31;40.50;99783.18;106267;1281;112505;-79
2022/07/10 10:04:42;;;;;;;3.00;1.10;;;;;;;24.22;39.92;99777.79;106010;1281;108975;-80
2022/07/10 10:07:19;;;;;;;1.80;1.00;;;;;;;24.86;38.44;99771.48;105903;1281;137919;-78
2022/07/10 10:09:53;;;;;;;;;;;;;;;24.68;36.71;99777.08;105954;1281;97923;-79
2022/07/10 10:12:35;;;;;;;3.80;0.90;;;;;;;24.16;36.60;99786.41;105822;1281;124278;-77
2022/07/10 10:15:11;;;;;;;2.40;1.30;;;;;;;23.91;36.88;99785.44;106077;1281;111438;-77
2022/07/10 10:17:46;;;;;;;3.50;0.80;;;;;;;24.38;37.37;99782.66;105968;1281;140005;-78
2022/07/10 10:20:41;;;;;;;2.00;0.80;;;;;;;25.03;36.86;99782.06;105934;1281;108892;-78
2022/07/10 10:23:17;;;;;;;1.70;0.70;;;;;;;25.48;35.52;99793.83;105936;1281;97922;-77
2022/07/10 10:25:51;;;;;;;2.40;0.60;;;;;;;25.71;35.11;99789.84;106121;1281;138067;-77
2022/07/10 10:28:24;;;;;;;2.80;0.80;;;;;;;26.05;35.01;99779.54;105953;1281;110413;-77
2022/07/10 10:30:59;;;;;;;3.20;0.80;;;;;;;26.46;34.66;99784.38;105701;1281;138510;-78
2022/07/10 10:33:46;;;;;;;2.50;0.70;;;;;;;26.77;33.55;99778.29;105774;1281;109020;-78
2022/07/10 10:36:47;;;;;;;2.90;0.70;;;;;;;26.95;33.35;99775.90;105663;1281;138116;-77
2022/07/10 10:39:21;;;;;;;2.60;0.90;;;;;;;26.57;33.07;99781.77;105980;1280;97891;-79
2022/07/10 10:41:55;;;;;;;2.10;1.00;;;;;;;26.16;33.90;99771.77;106060;1281;138063;-79
2022/07/10 10:44:35;;;;;;;1.60;0.90;;;;;;;26.00;34.03;99775.95;105805;1281;108890;-80
2022/07/10 10:47:09;;;;;;;6.30;1.20;;;;;;;25.80;33.85;99772.70;105784;1281;108430;-79
2022/07/10 10:49:59;;;;;;;5.40;1.10;;;;;;;25.66;34.27;99768.41;105607;1281;137946;-78
2022/07/10 10:52:31;;;;;;;1.90;1.00;;;;;;;25.82;34.74;99770.38;107193;1280;96028;-78
2022/07/10 10:55:08;;;;;;;2.20;0.90;;;;;;;26.08;35.18;99768.58;105997;1281;137734;-78
2022/07/10 10:57:47;;;;;;;2.80;0.80;;;;;;;26.02;34.87;99768.51;106156;1281;108102;-78
2022/07/10 11:00:40;;;;;;;2.80;0.90;;;;;;;25.76;34.72;99770.13;106300;1281;138051;-78
2022/07/10 11:03:18;;;;;;;3.50;1.00;;;;;;;25.56;34.99;99765.02;107091;1280;96101;-79
2022/07/10 11:05:51;;;;;;;4.00;1.10;;;;;;;25.42;34.80;99764.30;106542;1280;139138;-78
2022/07/10 11:08:43;;;;;;;1.90;0.80;;;;;;;25.10;34.23;99764.33;106112;1280;112977;-78
2022/07/10 11:11:41;;;;;;;3.70;0.80;;;;;;;24.66;33.74;99762.52;105916;1281;109113;-78
2022/07/10 11:14:15;;;;;;;2.70;0.90;;;;;;;24.27;34.31;99765.73;105904;1281;108987;-78
2022/07/10 11:16:52;;;;;;;4.30;0.90;;;;;;;24.02;34.72;99759.98;105951;1280;97979;-80
2022/07/10 11:19:27;;;;;;;4.20;1.10;;;;;;;23.90;35.39;99769.66;106098;1281;138409;-78
2022/07/10 11:22:48;;;;;;;5.70;1.10;;;;;;;23.81;35.63;99767.72;106065;1280;112440;-78
2022/07/10 11:25:44;;;;;;;3.50;1.00;;;;;;;23.62;36.06;99763.66;106017;1281;137983;-78
2022/07/10 11:28:22;;;;;;;6.80;1.60;;;;;;;23.52;36.25;99766.70;105949;1281;107892;-78
2022/07/10 11:30:56;;;;;;;18.80;6.60;;;;;;;23.67;36.49;99766.52;105794;1281;138891;-79
2022/07/10 11:33:28;;;;;;;3.80;1.20;;;;;;;23.90;36.42;99755.07;105979;1280;97866;-78
2022/07/10 11:36:10;;;;;;;5.50;1.10;;;;;;;24.10;36.50;99751.80;106395;1280;137967;-78
2022/07/10 11:38:44;;;;;;;6.20;1.30;;;;;;;24.32;36.66;99748.45;105790;1281;109125;-79
2022/07/10 11:41:18;;;;;;;6.20;1.90;;;;;;;24.32;36.61;99746.62;105965;1281;107836;-78
2022/07/10 11:43:52;;;;;;;2.00;1.00;;;;;;;24.28;36.83;99744.51;105986;1281;137731;-79
2022/07/10 11:46:26;;;;;;;5.40;0.90;;;;;;;24.38;37.02;99747.31;106133;1281;97756;-78
2022/07/10 11:48:59;;;;;;;2.90;1.00;;;;;;;24.37;36.06;99746.31;105918;1281;139486;-78
2022/07/10 11:51:34;;;;;;;4.00;0.70;;;;;;;24.19;35.65;99754.06;105869;1281;111289;-78
2022/07/10 11:54:08;;;;;;;5.10;0.80;;;;;;;24.00;35.67;99756.29;105767;1281;138272;-79
2022/07/10 11:56:42;;;;;;;2.50;1.40;;;;;;;23.84;35.14;99757.69;105872;1281;98314;-79
2022/07/10 11:59:16;;;;;;;7.20;2.60;;;;;;;23.61;34.45;99759.48;105962;1281;97828;-80